createdAt,value
2018-08-19T00:00:19.575Z,937.50
2018-08-19T00:01:19.696Z,937.52
2018-08-19T00:02:19.581Z,937.52
2018-08-19T00:03:19.846Z,937.51
2018-08-19T00:04:19.600Z,937.55
2018-08-19T00:05:19.625Z,937.53
2018-08-19T00:06:19.763Z,937.55
2018-08-19T00:07:19.766Z,937.55
2018-08-19T00:08:19.801Z,937.57
2018-08-19T00:09:19.666Z,937.54
2018-08-19T00:10:19.682Z,937.55
2018-08-19T00:11:19.693Z,937.57
2018-08-19T00:12:19.827Z,937.54
2018-08-19T00:13:20.024Z,937.53
2018-08-19T00:14:19.744Z,937.56
2018-08-19T00:15:19.751Z,937.53
2018-08-19T00:16:19.815Z,937.53
2018-08-19T00:17:19.765Z,937.58
2018-08-19T00:18:20.112Z,937.58
2018-08-19T00:19:19.918Z,937.61
2018-08-19T00:20:19.929Z,937.52
2018-08-19T00:21:19.940Z,937.56
2018-08-19T00:22:19.835Z,937.53
2018-08-19T00:23:20.153Z,937.54
2018-08-19T00:24:19.875Z,937.55
2018-08-19T00:25:19.863Z,937.56
2018-08-19T00:26:19.884Z,937.54
2018-08-19T00:27:20.018Z,937.59
2018-08-19T00:28:20.275Z,937.54
2018-08-19T00:29:20.042Z,937.53
2018-08-19T00:30:20.057Z,937.52
2018-08-19T00:31:19.928Z,937.52
2018-08-19T00:32:19.954Z,937.54
2018-08-19T00:33:20.177Z,937.51
2018-08-19T00:34:19.982Z,937.57
2018-08-19T00:35:20.033Z,937.57
2018-08-19T00:36:19.994Z,937.57
2018-08-19T00:37:20.020Z,937.57
2018-08-19T00:38:20.233Z,937.57
2018-08-19T00:39:20.057Z,937.57
2018-08-19T00:40:20.175Z,937.55
2018-08-19T00:41:20.070Z,937.54
2018-08-19T00:42:20.200Z,937.56
2018-08-19T00:43:20.288Z,937.54
2018-08-19T00:44:20.100Z,937.54
2018-08-19T00:45:20.106Z,937.54
2018-08-19T00:46:20.251Z,937.54
2018-08-19T00:47:20.266Z,937.57
2018-08-19T00:48:20.407Z,937.55
2018-08-19T00:49:20.283Z,937.55
2018-08-19T00:50:20.296Z,937.53
2018-08-19T00:51:20.180Z,937.50
2018-08-19T00:52:20.215Z,937.56
2018-08-19T00:53:20.369Z,937.55
2018-08-19T00:54:20.224Z,937.54
2018-08-19T00:55:20.362Z,937.53
2018-08-19T00:56:20.377Z,937.51
2018-08-19T00:57:20.253Z,937.52
2018-08-19T00:58:20.280Z,937.50
2018-08-19T00:59:20.555Z,937.48
2018-08-19T01:00:20.344Z,937.47
2018-08-19T01:01:20.311Z,937.48
2018-08-19T01:02:20.452Z,937.47
2018-08-19T01:03:20.456Z,937.46
2018-08-19T01:04:20.727Z,937.52
2018-08-19T01:05:20.487Z,937.50
2018-08-19T01:06:20.378Z,937.52
2018-08-19T01:07:20.505Z,937.51
2018-08-19T01:08:20.518Z,937.53
2018-08-19T01:09:20.536Z,937.52
2018-08-19T01:10:20.573Z,937.53
2018-08-19T01:11:20.437Z,937.53
2018-08-19T01:12:20.444Z,937.54
2018-08-19T01:13:20.456Z,937.55
2018-08-19T01:14:20.475Z,937.56
2018-08-19T01:15:20.738Z,937.54
2018-08-19T01:16:20.490Z,937.55
2018-08-19T01:17:20.630Z,937.57
2018-08-19T01:18:20.641Z,937.55
2018-08-19T01:19:20.527Z,937.54
2018-08-19T01:20:20.819Z,937.55
2018-08-19T01:21:20.807Z,937.55
2018-08-19T01:22:20.567Z,937.50
2018-08-19T01:23:20.702Z,937.50
2018-08-19T01:24:20.598Z,937.51
2018-08-19T01:25:20.606Z,937.50
2018-08-19T01:26:20.867Z,937.49
2018-08-19T01:27:20.753Z,937.49
2018-08-19T01:28:20.650Z,937.49
2018-08-19T01:29:20.658Z,937.46
2018-08-19T01:30:20.667Z,937.51
2018-08-19T01:31:20.835Z,937.49
2018-08-19T01:32:21.067Z,937.50
2018-08-19T01:33:20.710Z,937.53
2018-08-19T01:34:20.722Z,937.51
2018-08-19T01:35:20.853Z,937.53
2018-08-19T01:36:20.733Z,937.51
2018-08-19T01:37:21.129Z,937.53
2018-08-19T01:38:20.892Z,937.57
2018-08-19T01:39:20.896Z,937.54
2018-08-19T01:40:20.789Z,937.53
2018-08-19T01:41:20.925Z,937.52
2018-08-19T01:42:21.101Z,937.50
2018-08-19T01:43:20.833Z,937.53
2018-08-19T01:44:20.963Z,937.52
2018-08-19T01:45:20.977Z,937.52
2018-08-19T01:46:20.984Z,937.50
2018-08-19T01:47:21.170Z,937.47
2018-08-19T01:48:21.009Z,937.43
2018-08-19T01:49:21.021Z,937.47
2018-08-19T01:50:20.907Z,937.45
2018-08-19T01:51:20.938Z,937.46
2018-08-19T01:52:21.185Z,937.46
2018-08-19T01:53:20.987Z,937.51
2018-08-19T01:54:20.965Z,937.45
2018-08-19T01:55:21.007Z,937.44
2018-08-19T01:56:20.989Z,937.46
2018-08-19T01:57:21.009Z,937.44
2018-08-19T01:58:21.155Z,937.47
2018-08-19T01:59:21.275Z,937.42
2018-08-19T02:00:21.028Z,937.41
2018-08-19T02:01:21.175Z,937.41
2018-08-19T02:02:21.186Z,937.41
2018-08-19T02:03:21.075Z,937.41
2018-08-19T02:04:21.453Z,937.40
2018-08-19T02:05:21.097Z,937.41
2018-08-19T02:06:21.236Z,937.39
2018-08-19T02:07:21.126Z,937.41
2018-08-19T02:08:21.253Z,937.41
2018-08-19T02:09:21.147Z,937.41
2018-08-19T02:10:21.417Z,937.40
2018-08-19T02:11:21.210Z,937.39
2018-08-19T02:12:21.184Z,937.40
2018-08-19T02:13:21.235Z,937.41
2018-08-19T02:14:21.208Z,937.43
2018-08-19T02:15:21.589Z,937.44
2018-08-19T02:16:21.236Z,937.40
2018-08-19T02:17:21.229Z,937.40
2018-08-19T02:18:21.382Z,937.39
2018-08-19T02:19:21.388Z,937.40
2018-08-19T02:20:21.417Z,937.39
2018-08-19T02:21:21.538Z,937.35
2018-08-19T02:22:21.432Z,937.36
2018-08-19T02:23:21.316Z,937.38
2018-08-19T02:24:21.326Z,937.39
2018-08-19T02:25:21.345Z,937.36
2018-08-19T02:26:21.605Z,937.37
2018-08-19T02:27:21.364Z,937.33
2018-08-19T02:28:21.512Z,937.33
2018-08-19T02:29:21.518Z,937.31
2018-08-19T02:30:21.410Z,937.36
2018-08-19T02:31:21.415Z,937.32
2018-08-19T02:32:21.807Z,937.34
2018-08-19T02:33:21.442Z,937.38
2018-08-19T02:34:21.490Z,937.35
2018-08-19T02:35:21.583Z,937.33
2018-08-19T02:36:21.523Z,937.33
2018-08-19T02:37:21.809Z,937.29
2018-08-19T02:38:21.542Z,937.30
2018-08-19T02:39:21.636Z,937.23
2018-08-19T02:40:21.529Z,937.23
2018-08-19T02:41:21.537Z,937.22
2018-08-19T02:42:21.700Z,937.21
2018-08-19T02:43:21.556Z,937.19
2018-08-19T02:44:21.695Z,937.15
2018-08-19T02:45:21.831Z,937.14
2018-08-19T02:46:21.597Z,937.14
2018-08-19T02:47:21.603Z,937.12
2018-08-19T02:48:21.748Z,937.06
2018-08-19T02:49:21.677Z,937.09
2018-08-19T02:50:22.023Z,937.06
2018-08-19T02:51:21.654Z,937.03
2018-08-19T02:52:21.679Z,937.01
2018-08-19T02:53:21.695Z,937.00
2018-08-19T02:54:21.818Z,937.02
2018-08-19T02:55:21.983Z,936.96
2018-08-19T02:56:21.844Z,936.98
2018-08-19T02:57:21.738Z,936.97
2018-08-19T02:58:21.875Z,937.00
2018-08-19T02:59:21.884Z,936.99
2018-08-19T03:00:22.151Z,936.96
2018-08-19T03:01:21.788Z,936.94
2018-08-19T03:02:21.811Z,936.93
2018-08-19T03:03:21.844Z,936.88
2018-08-19T03:04:21.940Z,936.87
2018-08-19T03:05:21.961Z,936.84
2018-08-19T03:06:22.089Z,936.90
2018-08-19T03:07:21.842Z,936.87
2018-08-19T03:08:21.992Z,936.88
2018-08-19T03:09:21.877Z,936.90
2018-08-19T03:10:21.892Z,936.88
2018-08-19T03:11:21.912Z,936.89
2018-08-19T03:12:22.214Z,936.88
2018-08-19T03:13:21.924Z,936.89
2018-08-19T03:14:21.958Z,936.89
2018-08-19T03:15:21.994Z,936.86
2018-08-19T03:16:22.000Z,936.87
2018-08-19T03:17:21.992Z,936.87
2018-08-19T03:18:22.240Z,936.87
2018-08-19T03:19:22.127Z,936.85
2018-08-19T03:20:22.138Z,936.86
2018-08-19T03:21:22.164Z,936.85
2018-08-19T03:22:22.030Z,936.79
2018-08-19T03:23:22.043Z,936.83
2018-08-19T03:24:22.184Z,936.84
2018-08-19T03:25:22.072Z,936.80
2018-08-19T03:26:22.215Z,936.82
2018-08-19T03:27:22.229Z,936.83
2018-08-19T03:28:22.110Z,936.85
2018-08-19T03:29:22.124Z,936.83
2018-08-19T03:30:22.271Z,936.81
2018-08-19T03:31:22.272Z,936.79
2018-08-19T03:32:22.163Z,936.80
2018-08-19T03:33:22.171Z,936.78
2018-08-19T03:34:22.186Z,936.79
2018-08-19T03:35:22.318Z,936.76
2018-08-19T03:36:22.517Z,936.76
2018-08-19T03:37:22.218Z,936.76
2018-08-19T03:38:22.238Z,936.73
2018-08-19T03:39:22.289Z,936.72
2018-08-19T03:40:22.264Z,936.73
2018-08-19T03:41:22.643Z,936.71
2018-08-19T03:42:22.325Z,936.68
2018-08-19T03:43:22.299Z,936.69
2018-08-19T03:44:22.352Z,936.69
2018-08-19T03:45:22.448Z,936.62
2018-08-19T03:46:22.461Z,936.63
2018-08-19T03:47:22.622Z,936.63
2018-08-19T03:48:22.480Z,936.61
2018-08-19T03:49:22.363Z,936.61
2018-08-19T03:50:22.381Z,936.58
2018-08-19T03:51:22.820Z,936.59
2018-08-19T03:52:22.534Z,936.60
2018-08-19T03:53:22.543Z,936.62
2018-08-19T03:54:22.554Z,936.63
2018-08-19T03:55:22.446Z,936.61
2018-08-19T03:56:22.697Z,936.58
2018-08-19T03:57:22.463Z,936.58
2018-08-19T03:58:22.483Z,936.60
2018-08-19T03:59:22.488Z,936.59
2018-08-19T04:00:22.504Z,936.61
2018-08-19T04:01:22.760Z,936.58
2018-08-19T04:02:22.655Z,936.60
2018-08-19T04:03:22.536Z,936.59
2018-08-19T04:04:22.549Z,936.59
2018-08-19T04:05:22.552Z,936.54
2018-08-19T04:06:22.822Z,936.56
2018-08-19T04:07:22.579Z,936.53
2018-08-19T04:08:22.727Z,936.54
2018-08-19T04:09:22.732Z,936.53
2018-08-19T04:10:22.627Z,936.50
2018-08-19T04:11:22.940Z,936.50
2018-08-19T04:12:22.641Z,936.48
2018-08-19T04:13:22.654Z,936.51
2018-08-19T04:14:22.668Z,936.51
2018-08-19T04:15:22.684Z,936.48
2018-08-19T04:16:23.072Z,936.51
2018-08-19T04:17:22.754Z,936.46
2018-08-19T04:18:22.724Z,936.41
2018-08-19T04:19:22.725Z,936.41
2018-08-19T04:20:22.748Z,936.37
2018-08-19T04:21:23.033Z,936.37
2018-08-19T04:22:22.773Z,936.37
2018-08-19T04:23:22.781Z,936.34
2018-08-19T04:24:23.038Z,936.35
2018-08-19T04:25:22.934Z,936.37
2018-08-19T04:26:22.958Z,936.33
2018-08-19T04:27:22.827Z,936.30
2018-08-19T04:28:22.849Z,936.29
2018-08-19T04:29:23.230Z,936.32
2018-08-19T04:30:22.991Z,936.31
2018-08-19T04:31:22.877Z,936.34
2018-08-19T04:32:23.011Z,936.32
2018-08-19T04:33:22.912Z,936.30
2018-08-19T04:34:23.338Z,936.27
2018-08-19T04:35:22.929Z,936.26
2018-08-19T04:36:22.949Z,936.21
2018-08-19T04:37:23.076Z,936.17
2018-08-19T04:38:23.083Z,936.17
2018-08-19T04:39:23.098Z,936.16
2018-08-19T04:40:23.292Z,936.17
2018-08-19T04:41:23.008Z,936.16
2018-08-19T04:42:23.071Z,936.12
2018-08-19T04:43:23.017Z,936.12
2018-08-19T04:44:23.162Z,936.09
2018-08-19T04:45:23.310Z,936.11
2018-08-19T04:46:23.058Z,936.10
2018-08-19T04:47:23.067Z,936.10
2018-08-19T04:48:23.087Z,936.11
2018-08-19T04:49:23.095Z,936.16
2018-08-19T04:50:23.112Z,936.13
2018-08-19T04:51:23.492Z,936.10
2018-08-19T04:52:23.128Z,936.07
2018-08-19T04:53:23.265Z,936.10
2018-08-19T04:54:23.285Z,936.08
2018-08-19T04:55:23.174Z,936.06
2018-08-19T04:56:23.173Z,936.06
2018-08-19T04:57:23.445Z,936.12
2018-08-19T04:58:23.329Z,936.10
2018-08-19T04:59:23.336Z,936.07
2018-08-19T05:00:23.224Z,936.12
2018-08-19T05:01:23.368Z,936.09
2018-08-19T05:02:23.675Z,936.13
2018-08-19T05:03:23.270Z,936.10
2018-08-19T05:04:23.286Z,936.11
2018-08-19T05:05:23.275Z,936.10
2018-08-19T05:06:23.426Z,936.10
2018-08-19T05:07:23.592Z,936.08
2018-08-19T05:08:23.713Z,936.11
2018-08-19T05:09:23.468Z,936.06
2018-08-19T05:10:23.482Z,936.06
2018-08-19T05:11:23.361Z,936.08
2018-08-19T05:12:23.506Z,936.03
2018-08-19T05:13:23.635Z,936.04
2018-08-19T05:14:23.523Z,936.05
2018-08-19T05:15:23.462Z,936.04
2018-08-19T05:16:23.548Z,936.02
2018-08-19T05:17:23.442Z,936.01
2018-08-19T05:18:23.747Z,936.00
2018-08-19T05:19:23.477Z,935.98
2018-08-19T05:20:23.480Z,935.93
2018-08-19T05:21:23.609Z,935.92
2018-08-19T05:22:23.518Z,935.91
2018-08-19T05:23:23.834Z,935.91
2018-08-19T05:24:23.653Z,935.87
2018-08-19T05:25:23.665Z,935.87
2018-08-19T05:26:23.678Z,935.85
2018-08-19T05:27:23.683Z,935.86
2018-08-19T05:28:24.022Z,935.85
2018-08-19T05:29:23.594Z,935.83
2018-08-19T05:30:23.598Z,935.85
2018-08-19T05:31:23.636Z,935.84
2018-08-19T05:32:23.637Z,935.86
2018-08-19T05:33:23.935Z,935.82
2018-08-19T05:34:23.773Z,935.83
2018-08-19T05:35:23.664Z,935.84
2018-08-19T05:36:23.797Z,935.85
2018-08-19T05:37:23.692Z,935.84
2018-08-19T05:38:23.860Z,935.81
2018-08-19T05:39:23.761Z,935.80
2018-08-19T05:40:23.721Z,935.83
2018-08-19T05:41:23.857Z,935.84
2018-08-19T05:42:23.754Z,935.83
2018-08-19T05:43:24.003Z,935.82
2018-08-19T05:44:23.780Z,935.79
2018-08-19T05:45:23.907Z,935.82
2018-08-19T05:46:23.818Z,935.81
2018-08-19T05:47:23.814Z,935.83
2018-08-19T05:48:24.080Z,935.81
2018-08-19T05:49:23.842Z,935.80
2018-08-19T05:50:23.854Z,935.79
2018-08-19T05:51:23.983Z,935.80
2018-08-19T05:52:23.871Z,935.78
2018-08-19T05:53:24.131Z,935.80
2018-08-19T05:54:23.897Z,935.77
2018-08-19T05:55:24.031Z,935.76
2018-08-19T05:56:23.919Z,935.78
2018-08-19T05:57:23.940Z,935.76
2018-08-19T05:58:24.368Z,935.79
2018-08-19T05:59:24.088Z,935.78
2018-08-19T06:00:23.971Z,935.75
2018-08-19T06:01:24.104Z,935.76
2018-08-19T06:02:24.003Z,935.74
2018-08-19T06:03:24.331Z,935.71
2018-08-19T06:04:24.144Z,935.70
2018-08-19T06:05:24.072Z,935.70
2018-08-19T06:06:24.048Z,935.69
2018-08-19T06:07:24.098Z,935.69
2018-08-19T06:08:24.228Z,935.65
2018-08-19T06:09:24.083Z,935.62
2018-08-19T06:10:24.090Z,935.61
2018-08-19T06:11:24.306Z,935.62
2018-08-19T06:12:24.246Z,935.62
2018-08-19T06:13:24.255Z,935.62
2018-08-19T06:14:24.271Z,935.61
2018-08-19T06:15:24.161Z,935.65
2018-08-19T06:16:24.498Z,935.62
2018-08-19T06:17:24.192Z,935.64
2018-08-19T06:18:24.206Z,935.61
2018-08-19T06:19:24.207Z,935.61
2018-08-19T06:20:24.344Z,935.62
2018-08-19T06:21:24.490Z,935.58
2018-08-19T06:22:24.246Z,935.57
2018-08-19T06:23:24.290Z,935.63
2018-08-19T06:24:24.280Z,935.58
2018-08-19T06:25:24.402Z,935.56
2018-08-19T06:26:24.451Z,935.59
2018-08-19T06:27:24.547Z,935.58
2018-08-19T06:28:24.443Z,935.54
2018-08-19T06:29:24.449Z,935.54
2018-08-19T06:30:24.461Z,935.55
2018-08-19T06:31:24.474Z,935.49
2018-08-19T06:32:24.692Z,935.54
2018-08-19T06:33:24.505Z,935.50
2018-08-19T06:34:24.562Z,935.48
2018-08-19T06:35:24.524Z,935.47
2018-08-19T06:36:24.470Z,935.53
2018-08-19T06:37:24.634Z,935.48
2018-08-19T06:38:24.477Z,935.46
2018-08-19T06:39:24.452Z,935.47
2018-08-19T06:40:24.590Z,935.46
2018-08-19T06:41:24.603Z,935.50
2018-08-19T06:42:24.681Z,935.46
2018-08-19T06:43:24.626Z,935.46
2018-08-19T06:44:24.634Z,935.50
2018-08-19T06:45:24.515Z,935.49
2018-08-19T06:46:24.530Z,935.44
2018-08-19T06:47:24.918Z,935.40
2018-08-19T06:48:24.562Z,935.41
2018-08-19T06:49:24.700Z,935.41
2018-08-19T06:50:24.706Z,935.42
2018-08-19T06:51:24.723Z,935.40
2018-08-19T06:52:24.857Z,935.43
2018-08-19T06:53:24.624Z,935.41
2018-08-19T06:54:24.625Z,935.43
2018-08-19T06:55:24.639Z,935.40
2018-08-19T06:56:24.655Z,935.38
2018-08-19T06:57:24.881Z,935.41
2018-08-19T06:58:24.682Z,935.41
2018-08-19T06:59:24.823Z,935.42
2018-08-19T07:00:24.710Z,935.38
2018-08-19T07:01:24.711Z,935.38
2018-08-19T07:02:24.921Z,935.41
2018-08-19T07:03:24.754Z,935.40
2018-08-19T07:04:24.793Z,935.38
2018-08-19T07:05:24.770Z,935.39
2018-08-19T07:06:24.773Z,935.41
2018-08-19T07:07:24.790Z,935.40
2018-08-19T07:08:25.182Z,935.44
2018-08-19T07:09:24.938Z,935.47
2018-08-19T07:10:24.818Z,935.42
2018-08-19T07:11:24.965Z,935.42
2018-08-19T07:12:24.978Z,935.46
2018-08-19T07:13:25.071Z,935.42
2018-08-19T07:14:24.871Z,935.43
2018-08-19T07:15:24.897Z,935.43
2018-08-19T07:16:24.932Z,935.39
2018-08-19T07:17:24.924Z,935.39
2018-08-19T07:18:25.052Z,935.43
2018-08-19T07:19:25.073Z,935.41
2018-08-19T07:20:24.946Z,935.43
2018-08-19T07:21:25.000Z,935.43
2018-08-19T07:22:24.972Z,935.46
2018-08-19T07:23:25.111Z,935.46
2018-08-19T07:24:25.253Z,935.42
2018-08-19T07:25:25.129Z,935.41
2018-08-19T07:26:25.035Z,935.42
2018-08-19T07:27:25.151Z,935.42
2018-08-19T07:28:25.052Z,935.35
2018-08-19T07:29:25.432Z,935.37
2018-08-19T07:30:25.073Z,935.39
2018-08-19T07:31:25.075Z,935.42
2018-08-19T07:32:25.220Z,935.42
2018-08-19T07:33:25.104Z,935.46
2018-08-19T07:34:25.359Z,935.43
2018-08-19T07:35:25.254Z,935.46
2018-08-19T07:36:25.127Z,935.49
2018-08-19T07:37:25.155Z,935.47
2018-08-19T07:38:25.152Z,935.50
2018-08-19T07:39:25.450Z,935.46
2018-08-19T07:40:25.191Z,935.46
2018-08-19T07:41:25.323Z,935.46
2018-08-19T07:42:25.219Z,935.48
2018-08-19T07:43:25.238Z,935.45
2018-08-19T07:44:25.488Z,935.45
2018-08-19T07:45:25.369Z,935.46
2018-08-19T07:46:25.269Z,935.45
2018-08-19T07:47:25.279Z,935.47
2018-08-19T07:48:25.292Z,935.44
2018-08-19T07:49:25.645Z,935.42
2018-08-19T07:50:25.309Z,935.43
2018-08-19T07:51:25.329Z,935.46
2018-08-19T07:52:25.326Z,935.47
2018-08-19T07:53:25.464Z,935.51
2018-08-19T07:54:25.599Z,935.48
2018-08-19T07:55:25.487Z,935.49
2018-08-19T07:56:25.371Z,935.45
2018-08-19T07:57:25.391Z,935.51
2018-08-19T07:58:25.410Z,935.46
2018-08-19T07:59:25.662Z,935.51
2018-08-19T08:00:25.548Z,935.48
2018-08-19T08:01:25.546Z,935.43
2018-08-19T08:02:25.571Z,935.52
2018-08-19T08:03:25.459Z,935.47
2018-08-19T08:04:25.595Z,935.51
2018-08-19T08:05:25.688Z,935.52
2018-08-19T08:06:25.536Z,935.54
2018-08-19T08:07:25.507Z,935.52
2018-08-19T08:08:25.521Z,935.57
2018-08-19T08:09:25.533Z,935.57
2018-08-19T08:10:25.798Z,935.56
2018-08-19T08:11:25.547Z,935.55
2018-08-19T08:12:25.576Z,935.61
2018-08-19T08:13:25.584Z,935.61
2018-08-19T08:14:25.718Z,935.61
2018-08-19T08:15:25.897Z,935.68
2018-08-19T08:16:25.612Z,935.71
2018-08-19T08:17:25.623Z,935.73
2018-08-19T08:18:25.758Z,935.75
2018-08-19T08:19:25.771Z,935.74
2018-08-19T08:20:25.914Z,935.74
2018-08-19T08:21:25.780Z,935.76
2018-08-19T08:22:25.677Z,935.76
2018-08-19T08:23:25.727Z,935.80
2018-08-19T08:24:25.754Z,935.81
2018-08-19T08:25:25.966Z,935.78
2018-08-19T08:26:25.855Z,935.79
2018-08-19T08:27:25.868Z,935.79
2018-08-19T08:28:25.752Z,935.78
2018-08-19T08:29:25.768Z,935.78
2018-08-19T08:30:25.931Z,935.80
2018-08-19T08:31:25.911Z,935.82
2018-08-19T08:32:26.124Z,935.82
2018-08-19T08:33:25.932Z,935.81
2018-08-19T08:34:25.941Z,935.81
2018-08-19T08:35:25.842Z,935.83
2018-08-19T08:36:25.848Z,935.81
2018-08-19T08:37:26.105Z,935.81
2018-08-19T08:38:25.993Z,935.81
2018-08-19T08:39:25.879Z,935.83
2018-08-19T08:40:26.014Z,935.89
2018-08-19T08:41:26.031Z,935.84
2018-08-19T08:42:26.213Z,935.90
2018-08-19T08:43:25.926Z,935.92
2018-08-19T08:44:26.062Z,935.93
2018-08-19T08:45:26.090Z,935.91
2018-08-19T08:46:25.955Z,935.94
2018-08-19T08:47:26.384Z,935.89
2018-08-19T08:48:25.988Z,935.92
2018-08-19T08:49:26.005Z,935.93
2018-08-19T08:50:26.050Z,935.92
2018-08-19T08:51:26.046Z,935.94
2018-08-19T08:52:26.232Z,935.96
2018-08-19T08:53:26.175Z,935.98
2018-08-19T08:54:26.068Z,935.98
2018-08-19T08:55:26.200Z,935.97
2018-08-19T08:56:26.222Z,935.99
2018-08-19T08:57:26.377Z,936.01
2018-08-19T08:58:26.103Z,935.99
2018-08-19T08:59:26.245Z,936.00
2018-08-19T09:00:26.250Z,936.00
2018-08-19T09:01:26.270Z,936.09
2018-08-19T09:02:26.425Z,936.04
2018-08-19T09:03:26.289Z,936.09
2018-08-19T09:04:26.175Z,936.11
2018-08-19T09:05:26.310Z,936.09
2018-08-19T09:06:26.197Z,936.10
2018-08-19T09:07:26.467Z,936.09
2018-08-19T09:08:26.355Z,936.11
2018-08-19T09:09:26.240Z,936.13
2018-08-19T09:10:26.251Z,936.11
2018-08-19T09:11:26.257Z,936.11
2018-08-19T09:12:26.599Z,936.11
2018-08-19T09:13:26.289Z,936.16
2018-08-19T09:14:26.296Z,936.14
2018-08-19T09:15:26.428Z,936.18
2018-08-19T09:16:26.319Z,936.22
2018-08-19T09:17:26.640Z,936.21
2018-08-19T09:18:26.337Z,936.23
2018-08-19T09:19:26.408Z,936.23
2018-08-19T09:20:26.486Z,936.24
2018-08-19T09:21:26.370Z,936.23
2018-08-19T09:22:26.534Z,936.24
2018-08-19T09:23:26.510Z,936.25
2018-08-19T09:24:26.536Z,936.25
2018-08-19T09:25:26.841Z,936.24
2018-08-19T09:26:26.440Z,936.27
2018-08-19T09:27:26.449Z,936.29
2018-08-19T09:28:26.454Z,936.29
2018-08-19T09:29:26.459Z,936.36
2018-08-19T09:30:26.750Z,936.38
2018-08-19T09:31:26.493Z,936.38
2018-08-19T09:32:26.625Z,936.38
2018-08-19T09:33:26.639Z,936.39
2018-08-19T09:34:26.652Z,936.42
2018-08-19T09:35:30.770Z,936.44
2018-08-19T09:36:26.544Z,936.43
2018-08-19T09:37:26.566Z,936.42
2018-08-19T09:38:26.585Z,936.48
2018-08-19T09:39:26.712Z,936.49
2018-08-19T09:40:26.747Z,936.49
2018-08-19T09:41:26.915Z,936.55
2018-08-19T09:42:26.613Z,936.52
2018-08-19T09:43:26.752Z,936.55
2018-08-19T09:44:26.638Z,936.52
2018-08-19T09:45:26.774Z,936.50
2018-08-19T09:46:26.918Z,936.55
2018-08-19T09:47:26.719Z,936.54
2018-08-19T09:48:26.687Z,936.54
2018-08-19T09:49:26.702Z,936.54
2018-08-19T09:50:26.701Z,936.60
2018-08-19T09:51:26.969Z,936.56
2018-08-19T09:52:26.737Z,936.56
2018-08-19T09:53:26.742Z,936.58
2018-08-19T09:54:26.774Z,936.61
2018-08-19T09:55:26.759Z,936.63
2018-08-19T09:56:27.156Z,936.67
2018-08-19T09:57:26.797Z,936.70
2018-08-19T09:58:26.931Z,936.74
2018-08-19T09:59:26.934Z,936.73
2018-08-19T10:00:26.828Z,936.78
2018-08-19T10:01:27.169Z,936.73
2018-08-19T10:02:26.975Z,936.79
2018-08-19T10:03:26.858Z,936.78
2018-08-19T10:04:26.995Z,936.81
2018-08-19T10:05:26.885Z,936.83
2018-08-19T10:06:27.222Z,936.83
2018-08-19T10:07:26.998Z,936.84
2018-08-19T10:08:26.914Z,936.85
2018-08-19T10:09:26.939Z,936.82
2018-08-19T10:10:26.942Z,936.84
2018-08-19T10:11:26.958Z,936.86
2018-08-19T10:12:27.341Z,936.89
2018-08-19T10:13:26.986Z,936.89
2018-08-19T10:14:27.117Z,936.92
2018-08-19T10:15:27.002Z,936.91
2018-08-19T10:16:27.013Z,936.94
2018-08-19T10:17:27.023Z,936.97
2018-08-19T10:18:27.185Z,936.98
2018-08-19T10:19:27.263Z,937.01
2018-08-19T10:20:27.068Z,937.01
2018-08-19T10:21:27.077Z,936.98
2018-08-19T10:22:27.212Z,937.01
2018-08-19T10:23:27.101Z,936.98
2018-08-19T10:24:27.437Z,936.99
2018-08-19T10:25:27.248Z,937.02
2018-08-19T10:26:27.276Z,937.00
2018-08-19T10:27:27.151Z,937.04
2018-08-19T10:28:27.282Z,937.03
2018-08-19T10:29:27.167Z,937.07
2018-08-19T10:30:27.384Z,937.09
2018-08-19T10:31:27.332Z,937.08
2018-08-19T10:32:27.209Z,937.14
2018-08-19T10:33:27.242Z,937.12
2018-08-19T10:34:27.232Z,937.11
2018-08-19T10:35:27.238Z,937.11
2018-08-19T10:36:27.609Z,937.15
2018-08-19T10:37:27.267Z,937.15
2018-08-19T10:38:27.280Z,937.17
2018-08-19T10:39:27.295Z,937.20
2018-08-19T10:40:27.312Z,937.24
2018-08-19T10:41:27.572Z,937.23
2018-08-19T10:42:27.462Z,937.27
2018-08-19T10:43:27.353Z,937.27
2018-08-19T10:44:27.490Z,937.26
2018-08-19T10:45:27.498Z,937.27
2018-08-19T10:46:27.516Z,937.25
2018-08-19T10:47:27.606Z,937.27
2018-08-19T10:48:27.545Z,937.29
2018-08-19T10:49:27.548Z,937.29
2018-08-19T10:50:27.445Z,937.27
2018-08-19T10:51:27.454Z,937.26
2018-08-19T10:52:27.789Z,937.29
2018-08-19T10:53:27.566Z,937.30
2018-08-19T10:54:27.532Z,937.30
2018-08-19T10:55:27.520Z,937.29
2018-08-19T10:56:27.641Z,937.29
2018-08-19T10:57:27.914Z,937.30
2018-08-19T10:58:27.685Z,937.34
2018-08-19T10:59:27.684Z,937.41
2018-08-19T11:00:27.571Z,937.41
2018-08-19T11:01:27.592Z,937.38
2018-08-19T11:02:27.797Z,937.36
2018-08-19T11:03:27.617Z,937.40
2018-08-19T11:04:27.641Z,937.40
2018-08-19T11:05:27.643Z,937.42
2018-08-19T11:06:27.666Z,937.40
2018-08-19T11:07:27.878Z,937.42
2018-08-19T11:08:27.673Z,937.42
2018-08-19T11:09:27.709Z,937.45
2018-08-19T11:10:27.713Z,937.42
2018-08-19T11:11:27.851Z,937.46
2018-08-19T11:12:27.961Z,937.46
2018-08-19T11:13:27.891Z,937.46
2018-08-19T11:14:27.778Z,937.48
2018-08-19T11:15:27.912Z,937.49
2018-08-19T11:16:27.804Z,937.49
2018-08-19T11:17:27.965Z,937.55
2018-08-19T11:18:27.828Z,937.52
2018-08-19T11:19:27.841Z,937.50
2018-08-19T11:20:27.861Z,937.58
2018-08-19T11:21:28.119Z,937.56
2018-08-19T11:22:27.906Z,937.50
2018-08-19T11:23:28.027Z,937.54
2018-08-19T11:24:27.922Z,937.51
2018-08-19T11:25:27.937Z,937.58
2018-08-19T11:26:28.152Z,937.58
2018-08-19T11:27:27.986Z,937.59
2018-08-19T11:28:28.028Z,937.59
2018-08-19T11:29:27.994Z,937.61
2018-08-19T11:30:28.018Z,937.62
2018-08-19T11:31:28.419Z,937.62
2018-08-19T11:32:28.175Z,937.59
2018-08-19T11:33:28.062Z,937.61
2018-08-19T11:34:28.080Z,937.60
2018-08-19T11:35:28.109Z,937.62
2018-08-19T11:36:28.387Z,937.59
2018-08-19T11:37:28.133Z,937.60
2018-08-19T11:38:28.401Z,937.61
2018-08-19T11:39:28.293Z,937.66
2018-08-19T11:40:28.188Z,937.69
2018-08-19T11:41:28.232Z,937.66
2018-08-19T11:42:28.240Z,937.69
2018-08-19T11:43:28.340Z,937.72
2018-08-19T11:44:28.499Z,937.76
2018-08-19T11:45:28.396Z,937.77
2018-08-19T11:46:28.295Z,937.82
2018-08-19T11:47:28.306Z,937.81
2018-08-19T11:48:28.327Z,937.88
2018-08-19T11:49:28.718Z,937.86
2018-08-19T11:50:28.372Z,937.88
2018-08-19T11:51:28.501Z,937.91
2018-08-19T11:52:28.514Z,937.85
2018-08-19T11:53:28.414Z,937.86
2018-08-19T11:54:28.425Z,937.89
2018-08-19T11:55:28.635Z,937.92
2018-08-19T11:56:28.470Z,937.92
2018-08-19T11:57:28.482Z,937.92
2018-08-19T11:58:28.493Z,937.95
2018-08-19T11:59:28.554Z,937.90
2018-08-19T12:00:28.784Z,937.97
2018-08-19T12:01:28.672Z,937.97
2018-08-19T12:02:28.691Z,937.97
2018-08-19T12:03:28.583Z,937.95
2018-08-19T12:04:28.597Z,937.89
2018-08-19T12:05:28.932Z,937.91
2018-08-19T12:06:28.762Z,937.95
2018-08-19T12:07:28.667Z,937.94
2018-08-19T12:08:28.681Z,937.90
2018-08-19T12:09:28.688Z,937.92
2018-08-19T12:10:28.987Z,937.91
2018-08-19T12:11:28.847Z,937.93
2018-08-19T12:12:28.746Z,937.93
2018-08-19T12:13:29.021Z,937.93
2018-08-19T12:14:28.908Z,937.92
2018-08-19T12:15:28.787Z,937.91
2018-08-19T12:16:28.816Z,937.92
2018-08-19T12:17:28.957Z,937.92
2018-08-19T12:18:29.124Z,937.95
2018-08-19T12:19:28.857Z,937.93
2018-08-19T12:20:28.881Z,937.92
2018-08-19T12:21:29.021Z,937.93
2018-08-19T12:22:29.168Z,937.92
2018-08-19T12:23:28.942Z,937.94
2018-08-19T12:24:28.965Z,937.91
2018-08-19T12:25:29.090Z,937.93
2018-08-19T12:26:28.969Z,937.92
2018-08-19T12:27:29.170Z,937.90
2018-08-19T12:28:29.264Z,937.87